YSNF

Details ICAO YSNF (NLK)
Name Norfolk Island Intl
Region Australia
Timezone Pacific/Norfolk (UTC+11.0)
Plans Departing 32
Arriving 46
Stats Elevation 371 ft / 113 m (AMSL)
Location -29.042060° 167.938575°
Runways 2
Magnetic Variation 14.991° E
Sunrise 2018-05-26 19:32:22 UTC / 2018-05-27 06:32:22 Local
Sunset 2018-05-27 06:01:12 UTC / 2018-05-27 17:01:12 Local
Advertisement - Login to hide

Runways

ID Width Length Bearing (true) Bearing (mag) Surface Threshold Offset Overrun Length
04 98 ft / 30 m 5,115 ft / 1,559 m 49.90° 34.91° Asphalt 397 ft / 121 m 0 ft / 0 m
11 151 ft / 46 m 6,588 ft / 2,008 m 122.24° 107.25° Asphalt 197 ft / 60 m 0 ft / 0 m
22 98 ft / 30 m 5,115 ft / 1,559 m 229.90° 214.91° Asphalt 0 ft / 0 m 0 ft / 0 m
29 151 ft / 46 m 6,588 ft / 2,008 m 302.23° 287.24° Asphalt 197 ft / 60 m 0 ft / 0 m

Map

Weather


0- 5 10 15 20 25 30 35+ Temperature / ° C

Clouds and Precipitation
Forecast for 2018-05-27 00:00 UTC. Updated 21 minutes ago

Ground ~20,000 ft ~40,000 ft Winds

METAR

YSNF 262300Z 17009KT 9999 FEW036 BKN260 18/10 Q1024

TAF

Not found

Frequencies

Unicom 118.10 MHz CTAF
Warning: Do not use this data for real-world aviation or navigation. No guarantee of current accuracy is given.